CYVT

Details ICAO CYVT (YVT)
Name Buffalo Narrows
Region Canada
Timezone America/Regina (UTC-6.0)
Plans Departing 1
Arriving 2
Stats Elevation 1,444 ft / 440 m (AMSL)
Location 55.843317° -108.419590°
Runways 2
Magnetic Variation 11.819° E
Sunrise 2018-05-21 10:52:30 UTC / 2018-05-21 04:52:30 Local
Sunset 2018-05-22 03:30:56 UTC / 2018-05-21 21:30:56 Local
Advertisement - Login to hide

Runways

ID Width Length Bearing (true) Bearing (mag) Surface Threshold Offset Overrun Length
06 75 ft / 23 m 2,480 ft / 756 m 77.00° 65.18° Asphalt 0 ft / 0 m 0 ft / 0 m
11 98 ft / 30 m 5,005 ft / 1,525 m 128.49° 116.67° Asphalt 0 ft / 0 m 0 ft / 0 m
24 75 ft / 23 m 2,480 ft / 756 m 257.00° 245.18° Asphalt 0 ft / 0 m 0 ft / 0 m
29 98 ft / 30 m 5,005 ft / 1,525 m 308.51° 296.69° Asphalt 0 ft / 0 m 0 ft / 0 m

Map

Weather


0- 5 10 15 20 25 30 35+ Temperature / ° C

Clouds and Precipitation
Forecast for 2018-05-21 12:00 UTC. Updated 26 minutes ago

Ground ~20,000 ft ~40,000 ft Winds

METAR

Not found

TAF

TAF CYVT 210038Z 2101/2104 15005KT P6SM SKC RMK NXT FCST WILL BE ISSUED AT 211345Z

Frequencies

Tower 122.30 MHz MF REGINA RDO
Warning: Do not use this data for real-world aviation or navigation. No guarantee of current accuracy is given.